sensor_id;sensor_type;location;lat;lon;timestamp;P1;durP1;ratioP1;P2;durP2;ratioP2
3587;SDS011;1808;53.596;9.972;2022-11-25T00:01:27;34.05;;;11.43;;
3587;SDS011;1808;53.596;9.972;2022-11-25T00:03:55;41.25;;;12.65;;
3587;SDS011;1808;53.596;9.972;2022-11-25T00:06:23;53.65;;;14.38;;
3587;SDS011;1808;53.596;9.972;2022-11-25T00:08:52;33.38;;;12.07;;
3587;SDS011;1808;53.596;9.972;2022-11-25T00:11:19;53.42;;;15.57;;
3587;SDS011;1808;53.596;9.972;2022-11-25T00:13:46;28.67;;;12.65;;
3587;SDS011;1808;53.596;9.972;2022-11-25T00:16:13;42.47;;;13.75;;
3587;SDS011;1808;53.596;9.972;2022-11-25T00:18:42;45.25;;;13.85;;
3587;SDS011;1808;53.596;9.972;2022-11-25T00:21:09;40.53;;;13.48;;
3587;SDS011;1808;53.596;9.972;2022-11-25T00:23:36;49.78;;;15.02;;
3587;SDS011;1808;53.596;9.972;2022-11-25T00:26:08;47.50;;;14.98;;
3587;SDS011;1808;53.596;9.972;2022-11-25T00:28:35;36.35;;;14.38;;
3587;SDS011;1808;53.596;9.972;2022-11-25T00:31:05;48.13;;;14.50;;
3587;SDS011;1808;53.596;9.972;2022-11-25T00:33:32;44.30;;;14.77;;
3587;SDS011;1808;53.596;9.972;2022-11-25T00:35:59;41.70;;;14.02;;
3587;SDS011;1808;53.596;9.972;2022-11-25T00:38:26;42.67;;;13.20;;
3587;SDS011;1808;53.596;9.972;2022-11-25T00:40:52;43.90;;;13.50;;
3587;SDS011;1808;53.596;9.972;2022-11-25T00:43:41;115.45;;;16.73;;
3587;SDS011;1808;53.596;9.972;2022-11-25T00:46:25;88.65;;;20.08;;
3587;SDS011;1808;53.596;9.972;2022-11-25T00:48:51;65.55;;;16.27;;
3587;SDS011;1808;53.596;9.972;2022-11-25T00:51:17;51.58;;;13.98;;
3587;SDS011;1808;53.596;9.972;2022-11-25T00:53:44;65.15;;;14.40;;
3587;SDS011;1808;53.596;9.972;2022-11-25T00:56:10;79.32;;;17.20;;
3587;SDS011;1808;53.596;9.972;2022-11-25T00:58:41;46.75;;;13.93;;
3587;SDS011;1808;53.596;9.972;2022-11-25T01:01:09;46.95;;;13.70;;
3587;SDS011;1808;53.596;9.972;2022-11-25T01:03:35;70.07;;;16.05;;
3587;SDS011;1808;53.596;9.972;2022-11-25T01:06:02;31.35;;;13.30;;
3587;SDS011;1808;53.596;9.972;2022-11-25T01:08:28;54.20;;;13.68;;
3587;SDS011;1808;53.596;9.972;2022-11-25T01:10:56;40.47;;;12.85;;
3587;SDS011;1808;53.596;9.972;2022-11-25T01:13:23;60.65;;;16.20;;
3587;SDS011;1808;53.596;9.972;2022-11-25T01:15:51;50.85;;;14.10;;
3587;SDS011;1808;53.596;9.972;2022-11-25T01:18:18;45.30;;;14.40;;
3587;SDS011;1808;53.596;9.972;2022-11-25T01:20:44;53.20;;;13.13;;
3587;SDS011;1808;53.596;9.972;2022-11-25T01:23:10;37.83;;;13.77;;
3587;SDS011;1808;53.596;9.972;2022-11-25T01:25:36;41.53;;;12.57;;
3587;SDS011;1808;53.596;9.972;2022-11-25T01:28:03;65.45;;;14.95;;
3587;SDS011;1808;53.596;9.972;2022-11-25T01:30:30;35.88;;;12.73;;
3587;SDS011;1808;53.596;9.972;2022-11-25T01:32:57;38.67;;;14.95;;
3587;SDS011;1808;53.596;9.972;2022-11-25T01:35:24;45.17;;;14.05;;
3587;SDS011;1808;53.596;9.972;2022-11-25T01:37:50;46.47;;;13.40;;
3587;SDS011;1808;53.596;9.972;2022-11-25T01:40:17;31.02;;;12.57;;
3587;SDS011;1808;53.596;9.972;2022-11-25T01:42:44;49.78;;;14.02;;
3587;SDS011;1808;53.596;9.972;2022-11-25T01:50:35;45.05;;;15.30;;
3587;SDS011;1808;53.596;9.972;2022-11-25T01:53:02;38.20;;;14.15;;
3587;SDS011;1808;53.596;9.972;2022-11-25T01:55:29;39.63;;;16.67;;
3587;SDS011;1808;53.596;9.972;2022-11-25T01:57:59;44.40;;;16.55;;
3587;SDS011;1808;53.596;9.972;2022-11-25T02:00:29;41.30;;;15.82;;
3587;SDS011;1808;53.596;9.972;2022-11-25T02:02:55;38.05;;;15.18;;
3587;SDS011;1808;53.596;9.972;2022-11-25T02:05:25;47.58;;;16.80;;
3587;SDS011;1808;53.596;9.972;2022-11-25T02:07:55;43.00;;;15.13;;
3587;SDS011;1808;53.596;9.972;2022-11-25T02:10:23;35.20;;;14.77;;
3587;SDS011;1808;53.596;9.972;2022-11-25T02:12:51;36.22;;;15.05;;
3587;SDS011;1808;53.596;9.972;2022-11-25T02:15:17;43.53;;;16.05;;
3587;SDS011;1808;53.596;9.972;2022-11-25T02:17:44;44.97;;;17.45;;
3587;SDS011;1808;53.596;9.972;2022-11-25T02:20:11;38.95;;;16.35;;
3587;SDS011;1808;53.596;9.972;2022-11-25T02:22:43;45.28;;;18.65;;
3587;SDS011;1808;53.596;9.972;2022-11-25T02:25:16;38.08;;;16.85;;
3587;SDS011;1808;53.596;9.972;2022-11-25T02:27:45;46.13;;;17.60;;
3587;SDS011;1808;53.596;9.972;2022-11-25T02:30:14;41.20;;;15.32;;
3587;SDS011;1808;53.596;9.972;2022-11-25T02:32:43;46.42;;;18.88;;
3587;SDS011;1808;53.596;9.972;2022-11-25T02:35:20;50.10;;;19.63;;
3587;SDS011;1808;53.596;9.972;2022-11-25T02:37:50;48.55;;;16.17;;
3587;SDS011;1808;53.596;9.972;2022-11-25T02:40:19;49.88;;;15.63;;
3587;SDS011;1808;53.596;9.972;2022-11-25T02:42:45;48.60;;;19.83;;
3587;SDS011;1808;53.596;9.972;2022-11-25T02:45:12;43.13;;;17.38;;
3587;SDS011;1808;53.596;9.972;2022-11-25T02:47:40;48.42;;;18.65;;
3587;SDS011;1808;53.596;9.972;2022-11-25T02:50:07;45.42;;;18.70;;
3587;SDS011;1808;53.596;9.972;2022-11-25T02:52:33;36.65;;;16.38;;
3587;SDS011;1808;53.596;9.972;2022-11-25T02:55:00;39.97;;;16.48;;
3587;SDS011;1808;53.596;9.972;2022-11-25T02:57:27;38.75;;;16.25;;
3587;SDS011;1808;53.596;9.972;2022-11-25T02:59:54;38.50;;;17.88;;
3587;SDS011;1808;53.596;9.972;2022-11-25T03:02:20;36.80;;;15.63;;
3587;SDS011;1808;53.596;9.972;2022-11-25T03:04:46;35.42;;;14.55;;
3587;SDS011;1808;53.596;9.972;2022-11-25T03:07:13;33.85;;;14.88;;
3587;SDS011;1808;53.596;9.972;2022-11-25T03:09:39;30.80;;;14.50;;
3587;SDS011;1808;53.596;9.972;2022-11-25T03:12:07;35.70;;;16.35;;
3587;SDS011;1808;53.596;9.972;2022-11-25T03:14:47;32.80;;;13.35;;
3587;SDS011;1808;53.596;9.972;2022-11-25T03:17:13;30.23;;;12.95;;
3587;SDS011;1808;53.596;9.972;2022-11-25T03:19:40;32.85;;;13.15;;
3587;SDS011;1808;53.596;9.972;2022-11-25T03:22:06;27.25;;;12.93;;
3587;SDS011;1808;53.596;9.972;2022-11-25T03:24:33;30.45;;;13.55;;
3587;SDS011;1808;53.596;9.972;2022-11-25T03:26:59;30.88;;;12.75;;
3587;SDS011;1808;53.596;9.972;2022-11-25T03:29:25;35.72;;;14.13;;
3587;SDS011;1808;53.596;9.972;2022-11-25T03:31:53;29.83;;;13.73;;
3587;SDS011;1808;53.596;9.972;2022-11-25T03:34:19;28.75;;;13.60;;
3587;SDS011;1808;53.596;9.972;2022-11-25T03:36:45;35.22;;;13.82;;
3587;SDS011;1808;53.596;9.972;2022-11-25T03:39:12;26.95;;;12.82;;
3587;SDS011;1808;53.596;9.972;2022-11-25T03:41:38;34.30;;;14.32;;
3587;SDS011;1808;53.596;9.972;2022-11-25T03:44:04;31.60;;;13.90;;
3587;SDS011;1808;53.596;9.972;2022-11-25T03:46:31;29.50;;;13.32;;
3587;SDS011;1808;53.596;9.972;2022-11-25T03:48:58;39.67;;;17.23;;
3587;SDS011;1808;53.596;9.972;2022-11-25T03:51:25;38.88;;;14.57;;
3587;SDS011;1808;53.596;9.972;2022-11-25T03:53:51;29.13;;;13.95;;
3587;SDS011;1808;53.596;9.972;2022-11-25T03:56:17;30.35;;;12.63;;
3587;SDS011;1808;53.596;9.972;2022-11-25T03:58:44;34.63;;;14.68;;
3587;SDS011;1808;53.596;9.972;2022-11-25T04:01:10;29.70;;;12.20;;
3587;SDS011;1808;53.596;9.972;2022-11-25T04:03:37;32.28;;;15.40;;
3587;SDS011;1808;53.596;9.972;2022-11-25T04:06:04;31.73;;;13.48;;
3587;SDS011;1808;53.596;9.972;2022-11-25T04:08:31;29.42;;;13.25;;
3587;SDS011;1808;53.596;9.972;2022-11-25T04:10:57;31.08;;;12.82;;
3587;SDS011;1808;53.596;9.972;2022-11-25T04:13:24;29.10;;;12.75;;
3587;SDS011;1808;53.596;9.972;2022-11-25T04:15:50;29.05;;;13.10;;
3587;SDS011;1808;53.596;9.972;2022-11-25T04:18:17;23.55;;;12.07;;
3587;SDS011;1808;53.596;9.972;2022-11-25T04:20:44;31.23;;;12.13;;
3587;SDS011;1808;53.596;9.972;2022-11-25T04:23:12;27.58;;;12.50;;
3587;SDS011;1808;53.596;9.972;2022-11-25T04:25:39;29.38;;;12.30;;
3587;SDS011;1808;53.596;9.972;2022-11-25T04:28:05;27.92;;;10.80;;
3587;SDS011;1808;53.596;9.972;2022-11-25T04:30:32;26.27;;;12.07;;
3587;SDS011;1808;53.596;9.972;2022-11-25T04:32:59;27.73;;;11.85;;
3587;SDS011;1808;53.596;9.972;2022-11-25T04:35:25;24.05;;;12.18;;
3587;SDS011;1808;53.596;9.972;2022-11-25T04:37:52;25.85;;;11.48;;
3587;SDS011;1808;53.596;9.972;2022-11-25T04:40:19;25.38;;;12.32;;
3587;SDS011;1808;53.596;9.972;2022-11-25T04:42:46;24.75;;;11.75;;
3587;SDS011;1808;53.596;9.972;2022-11-25T04:45:13;28.40;;;10.93;;
3587;SDS011;1808;53.596;9.972;2022-11-25T04:47:40;24.77;;;11.02;;
3587;SDS011;1808;53.596;9.972;2022-11-25T04:50:08;25.98;;;11.10;;
3587;SDS011;1808;53.596;9.972;2022-11-25T04:52:37;21.00;;;9.65;;
3587;SDS011;1808;53.596;9.972;2022-11-25T04:55:04;25.83;;;10.98;;
3587;SDS011;1808;53.596;9.972;2022-11-25T04:57:32;23.35;;;10.75;;
3587;SDS011;1808;53.596;9.972;2022-11-25T04:59:59;22.90;;;9.85;;
3587;SDS011;1808;53.596;9.972;2022-11-25T05:02:26;25.95;;;11.68;;
3587;SDS011;1808;53.596;9.972;2022-11-25T05:04:53;30.75;;;12.40;;
3587;SDS011;1808;53.596;9.972;2022-11-25T05:07:21;25.30;;;9.93;;
3587;SDS011;1808;53.596;9.972;2022-11-25T05:09:49;22.23;;;10.15;;
3587;SDS011;1808;53.596;9.972;2022-11-25T05:12:17;21.00;;;9.48;;
3587;SDS011;1808;53.596;9.972;2022-11-25T05:14:45;20.02;;;9.98;;
3587;SDS011;1808;53.596;9.972;2022-11-25T05:17:12;22.80;;;9.75;;
3587;SDS011;1808;53.596;9.972;2022-11-25T05:19:40;24.98;;;10.13;;
3587;SDS011;1808;53.596;9.972;2022-11-25T05:22:08;28.13;;;12.02;;
3587;SDS011;1808;53.596;9.972;2022-11-25T05:24:35;20.33;;;9.07;;
3587;SDS011;1808;53.596;9.972;2022-11-25T05:27:02;24.67;;;9.98;;
3587;SDS011;1808;53.596;9.972;2022-11-25T05:29:28;22.67;;;10.80;;
3587;SDS011;1808;53.596;9.972;2022-11-25T05:31:56;16.95;;;8.25;;
3587;SDS011;1808;53.596;9.972;2022-11-25T05:34:23;26.55;;;10.75;;
3587;SDS011;1808;53.596;9.972;2022-11-25T05:36:49;19.73;;;8.75;;
3587;SDS011;1808;53.596;9.972;2022-11-25T05:39:16;22.58;;;8.63;;
3587;SDS011;1808;53.596;9.972;2022-11-25T05:41:42;23.83;;;9.82;;
3587;SDS011;1808;53.596;9.972;2022-11-25T05:44:09;28.20;;;10.68;;
3587;SDS011;1808;53.596;9.972;2022-11-25T05:46:35;17.02;;;8.25;;
3587;SDS011;1808;53.596;9.972;2022-11-25T05:49:03;20.73;;;9.75;;
3587;SDS011;1808;53.596;9.972;2022-11-25T05:51:29;21.90;;;9.80;;
3587;SDS011;1808;53.596;9.972;2022-11-25T05:53:56;17.85;;;8.55;;
3587;SDS011;1808;53.596;9.972;2022-11-25T05:56:23;22.27;;;9.90;;
3587;SDS011;1808;53.596;9.972;2022-11-25T05:58:49;30.58;;;10.50;;
3587;SDS011;1808;53.596;9.972;2022-11-25T06:01:16;21.25;;;10.05;;
3587;SDS011;1808;53.596;9.972;2022-11-25T06:03:42;24.65;;;10.00;;
3587;SDS011;1808;53.596;9.972;2022-11-25T06:06:10;20.33;;;9.65;;
3587;SDS011;1808;53.596;9.972;2022-11-25T06:08:37;24.30;;;10.25;;
3587;SDS011;1808;53.596;9.972;2022-11-25T06:11:05;18.38;;;9.02;;
3587;SDS011;1808;53.596;9.972;2022-11-25T06:13:32;19.83;;;9.45;;
3587;SDS011;1808;53.596;9.972;2022-11-25T06:15:58;18.60;;;9.18;;
3587;SDS011;1808;53.596;9.972;2022-11-25T06:18:28;16.60;;;8.85;;
3587;SDS011;1808;53.596;9.972;2022-11-25T06:20:55;22.98;;;9.82;;
3587;SDS011;1808;53.596;9.972;2022-11-25T06:23:24;22.83;;;9.23;;
3587;SDS011;1808;53.596;9.972;2022-11-25T06:25:51;20.95;;;9.35;;
3587;SDS011;1808;53.596;9.972;2022-11-25T06:28:17;20.48;;;7.63;;
3587;SDS011;1808;53.596;9.972;2022-11-25T06:30:44;24.38;;;8.90;;
3587;SDS011;1808;53.596;9.972;2022-11-25T06:33:10;22.27;;;9.25;;
3587;SDS011;1808;53.596;9.972;2022-11-25T06:35:37;23.90;;;11.20;;
3587;SDS011;1808;53.596;9.972;2022-11-25T06:38:03;20.02;;;8.95;;
3587;SDS011;1808;53.596;9.972;2022-11-25T06:40:31;16.50;;;8.48;;
3587;SDS011;1808;53.596;9.972;2022-11-25T06:42:57;24.42;;;10.02;;
3587;SDS011;1808;53.596;9.972;2022-11-25T06:45:24;22.65;;;10.27;;
3587;SDS011;1808;53.596;9.972;2022-11-25T06:47:50;28.20;;;10.63;;
3587;SDS011;1808;53.596;9.972;2022-11-25T06:50:17;18.25;;;9.38;;
3587;SDS011;1808;53.596;9.972;2022-11-25T06:52:44;24.83;;;9.10;;
3587;SDS011;1808;53.596;9.972;2022-11-25T06:55:10;22.05;;;10.32;;
3587;SDS011;1808;53.596;9.972;2022-11-25T06:57:38;19.27;;;7.85;;
3587;SDS011;1808;53.596;9.972;2022-11-25T07:00:05;19.70;;;8.40;;
3587;SDS011;1808;53.596;9.972;2022-11-25T07:02:32;25.75;;;11.00;;
3587;SDS011;1808;53.596;9.972;2022-11-25T07:04:59;22.13;;;8.88;;
3587;SDS011;1808;53.596;9.972;2022-11-25T07:07:25;18.58;;;8.73;;
3587;SDS011;1808;53.596;9.972;2022-11-25T07:09:51;24.40;;;9.90;;
3587;SDS011;1808;53.596;9.972;2022-11-25T07:12:18;21.45;;;9.20;;
3587;SDS011;1808;53.596;9.972;2022-11-25T07:14:46;24.75;;;12.60;;
3587;SDS011;1808;53.596;9.972;2022-11-25T07:17:15;17.92;;;8.27;;
3587;SDS011;1808;53.596;9.972;2022-11-25T07:19:41;18.65;;;8.40;;
3587;SDS011;1808;53.596;9.972;2022-11-25T07:22:09;19.88;;;10.38;;
3587;SDS011;1808;53.596;9.972;2022-11-25T07:24:35;15.77;;;7.68;;
3587;SDS011;1808;53.596;9.972;2022-11-25T07:27:02;16.58;;;8.68;;
3587;SDS011;1808;53.596;9.972;2022-11-25T07:29:31;17.42;;;8.02;;
3587;SDS011;1808;53.596;9.972;2022-11-25T07:32:00;16.50;;;8.45;;
3587;SDS011;1808;53.596;9.972;2022-11-25T07:34:27;18.90;;;6.97;;
3587;SDS011;1808;53.596;9.972;2022-11-25T07:36:53;16.77;;;8.00;;
3587;SDS011;1808;53.596;9.972;2022-11-25T07:39:21;23.65;;;7.45;;
3587;SDS011;1808;53.596;9.972;2022-11-25T07:41:48;22.98;;;7.88;;
3587;SDS011;1808;53.596;9.972;2022-11-25T07:44:15;17.65;;;7.55;;
3587;SDS011;1808;53.596;9.972;2022-11-25T07:46:42;21.40;;;7.45;;
3587;SDS011;1808;53.596;9.972;2022-11-25T07:49:12;15.88;;;7.10;;
3587;SDS011;1808;53.596;9.972;2022-11-25T07:51:40;13.88;;;6.35;;
3587;SDS011;1808;53.596;9.972;2022-11-25T07:54:08;18.65;;;8.63;;
3587;SDS011;1808;53.596;9.972;2022-11-25T07:56:37;18.10;;;6.80;;
3587;SDS011;1808;53.596;9.972;2022-11-25T07:59:05;16.63;;;7.05;;
3587;SDS011;1808;53.596;9.972;2022-11-25T08:01:32;15.48;;;7.13;;
3587;SDS011;1808;53.596;9.972;2022-11-25T08:03:58;17.58;;;7.30;;
3587;SDS011;1808;53.596;9.972;2022-11-25T08:06:26;22.38;;;7.82;;
3587;SDS011;1808;53.596;9.972;2022-11-25T08:08:54;16.20;;;7.15;;
3587;SDS011;1808;53.596;9.972;2022-11-25T08:11:22;17.20;;;6.43;;
3587;SDS011;1808;53.596;9.972;2022-11-25T08:13:50;20.08;;;6.70;;
3587;SDS011;1808;53.596;9.972;2022-11-25T08:16:17;24.27;;;7.78;;
3587;SDS011;1808;53.596;9.972;2022-11-25T08:18:44;14.43;;;6.30;;
3587;SDS011;1808;53.596;9.972;2022-11-25T08:21:12;18.58;;;7.90;;
3587;SDS011;1808;53.596;9.972;2022-11-25T08:23:41;17.25;;;6.90;;
3587;SDS011;1808;53.596;9.972;2022-11-25T08:26:09;14.48;;;5.90;;
3587;SDS011;1808;53.596;9.972;2022-11-25T08:28:38;14.10;;;7.18;;
3587;SDS011;1808;53.596;9.972;2022-11-25T08:31:05;23.88;;;7.57;;
3587;SDS011;1808;53.596;9.972;2022-11-25T08:33:33;15.27;;;6.47;;
3587;SDS011;1808;53.596;9.972;2022-11-25T08:35:59;16.15;;;6.72;;
3587;SDS011;1808;53.596;9.972;2022-11-25T08:38:26;16.27;;;7.10;;
3587;SDS011;1808;53.596;9.972;2022-11-25T08:40:54;12.80;;;5.95;;
3587;SDS011;1808;53.596;9.972;2022-11-25T08:43:21;23.40;;;6.75;;
3587;SDS011;1808;53.596;9.972;2022-11-25T08:45:48;16.67;;;6.40;;
3587;SDS011;1808;53.596;9.972;2022-11-25T08:48:15;14.32;;;5.88;;
3587;SDS011;1808;53.596;9.972;2022-11-25T08:50:44;11.98;;;4.70;;
3587;SDS011;1808;53.596;9.972;2022-11-25T08:53:12;16.10;;;6.65;;
3587;SDS011;1808;53.596;9.972;2022-11-25T08:55:39;17.05;;;6.85;;
3587;SDS011;1808;53.596;9.972;2022-11-25T08:58:07;12.95;;;5.63;;
3587;SDS011;1808;53.596;9.972;2022-11-25T09:00:37;13.95;;;5.97;;
3587;SDS011;1808;53.596;9.972;2022-11-25T09:03:04;16.05;;;7.07;;
3587;SDS011;1808;53.596;9.972;2022-11-25T09:05:30;15.60;;;5.90;;
3587;SDS011;1808;53.596;9.972;2022-11-25T09:08:00;14.63;;;5.60;;
3587;SDS011;1808;53.596;9.972;2022-11-25T09:10:27;16.38;;;6.05;;
3587;SDS011;1808;53.596;9.972;2022-11-25T09:12:53;17.15;;;6.28;;
3587;SDS011;1808;53.596;9.972;2022-11-25T09:15:21;12.52;;;5.38;;
3587;SDS011;1808;53.596;9.972;2022-11-25T09:17:48;18.85;;;7.10;;
3587;SDS011;1808;53.596;9.972;2022-11-25T09:20:14;11.43;;;6.53;;
3587;SDS011;1808;53.596;9.972;2022-11-25T09:22:41;17.50;;;5.90;;
3587;SDS011;1808;53.596;9.972;2022-11-25T09:25:07;13.38;;;6.30;;
3587;SDS011;1808;53.596;9.972;2022-11-25T09:27:34;17.75;;;6.45;;
3587;SDS011;1808;53.596;9.972;2022-11-25T09:30:00;17.23;;;6.43;;
3587;SDS011;1808;53.596;9.972;2022-11-25T09:32:28;19.92;;;6.93;;
3587;SDS011;1808;53.596;9.972;2022-11-25T09:34:54;25.40;;;8.10;;
3587;SDS011;1808;53.596;9.972;2022-11-25T09:37:21;16.02;;;6.82;;
3587;SDS011;1808;53.596;9.972;2022-11-25T09:39:47;11.55;;;6.32;;
3587;SDS011;1808;53.596;9.972;2022-11-25T09:42:21;16.45;;;6.35;;
3587;SDS011;1808;53.596;9.972;2022-11-25T09:45:14;22.27;;;7.30;;
3587;SDS011;1808;53.596;9.972;2022-11-25T09:48:04;15.00;;;6.43;;
3587;SDS011;1808;53.596;9.972;2022-11-25T09:50:39;19.50;;;6.97;;
3587;SDS011;1808;53.596;9.972;2022-11-25T09:53:14;16.65;;;7.25;;
3587;SDS011;1808;53.596;9.972;2022-11-25T09:55:48;16.95;;;8.07;;
3587;SDS011;1808;53.596;9.972;2022-11-25T09:58:19;20.08;;;7.45;;
3587;SDS011;1808;53.596;9.972;2022-11-25T10:00:50;15.15;;;7.03;;
3587;SDS011;1808;53.596;9.972;2022-11-25T10:03:22;15.88;;;6.18;;
3587;SDS011;1808;53.596;9.972;2022-11-25T10:05:56;19.58;;;7.38;;
3587;SDS011;1808;53.596;9.972;2022-11-25T10:08:25;12.55;;;6.05;;
3587;SDS011;1808;53.596;9.972;2022-11-25T10:10:54;17.00;;;7.60;;
3587;SDS011;1808;53.596;9.972;2022-11-25T10:13:26;13.07;;;6.00;;
3587;SDS011;1808;53.596;9.972;2022-11-25T10:15:55;18.85;;;7.07;;
3587;SDS011;1808;53.596;9.972;2022-11-25T10:18:26;19.40;;;6.97;;
3587;SDS011;1808;53.596;9.972;2022-11-25T10:20:54;15.00;;;7.82;;
3587;SDS011;1808;53.596;9.972;2022-11-25T10:23:22;18.20;;;7.07;;
3587;SDS011;1808;53.596;9.972;2022-11-25T10:25:51;20.00;;;8.48;;
3587;SDS011;1808;53.596;9.972;2022-11-25T10:28:19;28.30;;;7.78;;
3587;SDS011;1808;53.596;9.972;2022-11-25T10:30:47;17.08;;;6.45;;
3587;SDS011;1808;53.596;9.972;2022-11-25T10:33:18;18.45;;;7.93;;
3587;SDS011;1808;53.596;9.972;2022-11-25T10:35:48;16.70;;;7.63;;
3587;SDS011;1808;53.596;9.972;2022-11-25T10:38:17;19.77;;;7.63;;
3587;SDS011;1808;53.596;9.972;2022-11-25T10:40:48;22.40;;;7.47;;
3587;SDS011;1808;53.596;9.972;2022-11-25T10:43:15;21.50;;;9.15;;
3587;SDS011;1808;53.596;9.972;2022-11-25T10:45:44;21.38;;;8.27;;
3587;SDS011;1808;53.596;9.972;2022-11-25T10:48:16;22.27;;;9.93;;
3587;SDS011;1808;53.596;9.972;2022-11-25T10:50:58;21.35;;;8.88;;
3587;SDS011;1808;53.596;9.972;2022-11-25T10:53:29;17.60;;;8.23;;
3587;SDS011;1808;53.596;9.972;2022-11-25T10:55:57;19.95;;;8.75;;
3587;SDS011;1808;53.596;9.972;2022-11-25T10:58:27;22.67;;;9.85;;
3587;SDS011;1808;53.596;9.972;2022-11-25T11:01:03;21.77;;;9.60;;
3587;SDS011;1808;53.596;9.972;2022-11-25T11:03:32;22.67;;;10.32;;
3587;SDS011;1808;53.596;9.972;2022-11-25T11:06:00;23.42;;;9.85;;
3587;SDS011;1808;53.596;9.972;2022-11-25T11:08:27;25.88;;;11.00;;
3587;SDS011;1808;53.596;9.972;2022-11-25T11:11:07;20.83;;;9.85;;
3587;SDS011;1808;53.596;9.972;2022-11-25T11:13:44;22.38;;;9.73;;
3587;SDS011;1808;53.596;9.972;2022-11-25T11:16:20;22.15;;;10.00;;
3587;SDS011;1808;53.596;9.972;2022-11-25T11:18:50;20.88;;;9.80;;
3587;SDS011;1808;53.596;9.972;2022-11-25T11:21:22;21.77;;;10.40;;
3587;SDS011;1808;53.596;9.972;2022-11-25T11:23:50;30.33;;;9.68;;
3587;SDS011;1808;53.596;9.972;2022-11-25T11:26:21;22.13;;;10.43;;
3587;SDS011;1808;53.596;9.972;2022-11-25T11:28:55;21.23;;;9.73;;
3587;SDS011;1808;53.596;9.972;2022-11-25T11:31:27;20.40;;;10.25;;
3587;SDS011;1808;53.596;9.972;2022-11-25T11:33:57;22.02;;;9.70;;
3587;SDS011;1808;53.596;9.972;2022-11-25T11:41:54;20.70;;;9.65;;
3587;SDS011;1808;53.596;9.972;2022-11-25T11:44:25;20.88;;;9.63;;
3587;SDS011;1808;53.596;9.972;2022-11-25T11:47:00;17.70;;;9.93;;
3587;SDS011;1808;53.596;9.972;2022-11-25T11:49:38;17.73;;;9.15;;
3587;SDS011;1808;53.596;9.972;2022-11-25T11:52:25;22.98;;;9.35;;
3587;SDS011;1808;53.596;9.972;2022-11-25T11:54:57;15.77;;;8.68;;
3587;SDS011;1808;53.596;9.972;2022-11-25T11:57:27;22.38;;;10.55;;
3587;SDS011;1808;53.596;9.972;2022-11-25T11:59:58;21.10;;;8.77;;
3587;SDS011;1808;53.596;9.972;2022-11-25T12:02:30;17.70;;;9.05;;
3587;SDS011;1808;53.596;9.972;2022-11-25T12:05:04;18.23;;;8.90;;
3587;SDS011;1808;53.596;9.972;2022-11-25T12:07:40;19.10;;;9.45;;
3587;SDS011;1808;53.596;9.972;2022-11-25T12:10:15;18.92;;;9.20;;
3587;SDS011;1808;53.596;9.972;2022-11-25T12:12:48;21.40;;;8.90;;
3587;SDS011;1808;53.596;9.972;2022-11-25T12:15:18;29.60;;;10.90;;
3587;SDS011;1808;53.596;9.972;2022-11-25T12:17:47;18.42;;;9.00;;
3587;SDS011;1808;53.596;9.972;2022-11-25T12:20:18;19.05;;;8.98;;
3587;SDS011;1808;53.596;9.972;2022-11-25T12:22:54;17.20;;;9.25;;
3587;SDS011;1808;53.596;9.972;2022-11-25T12:25:24;19.15;;;8.88;;
3587;SDS011;1808;53.596;9.972;2022-11-25T12:27:53;17.67;;;8.75;;
3587;SDS011;1808;53.596;9.972;2022-11-25T12:30:23;17.75;;;8.93;;
3587;SDS011;1808;53.596;9.972;2022-11-25T12:32:56;21.30;;;8.60;;
3587;SDS011;1808;53.596;9.972;2022-11-25T12:35:44;19.27;;;9.32;;
3587;SDS011;1808;53.596;9.972;2022-11-25T12:38:21;19.90;;;9.73;;
3587;SDS011;1808;53.596;9.972;2022-11-25T12:40:52;18.90;;;8.70;;
3587;SDS011;1808;53.596;9.972;2022-11-25T12:43:24;22.45;;;10.45;;
3587;SDS011;1808;53.596;9.972;2022-11-25T12:45:59;18.98;;;9.80;;
3587;SDS011;1808;53.596;9.972;2022-11-25T12:48:31;21.60;;;11.07;;
3587;SDS011;1808;53.596;9.972;2022-11-25T12:50:59;18.30;;;9.07;;
3587;SDS011;1808;53.596;9.972;2022-11-25T12:53:30;21.85;;;9.32;;
3587;SDS011;1808;53.596;9.972;2022-11-25T12:56:00;21.73;;;9.90;;
3587;SDS011;1808;53.596;9.972;2022-11-25T12:58:29;21.67;;;9.73;;
3587;SDS011;1808;53.596;9.972;2022-11-25T13:01:14;21.80;;;9.45;;
3587;SDS011;1808;53.596;9.972;2022-11-25T13:04:12;17.83;;;9.48;;
3587;SDS011;1808;53.596;9.972;2022-11-25T13:06:58;23.65;;;9.93;;
3587;SDS011;1808;53.596;9.972;2022-11-25T13:09:53;23.50;;;8.43;;
3587;SDS011;1808;53.596;9.972;2022-11-25T13:12:31;19.88;;;9.05;;
3587;SDS011;1808;53.596;9.972;2022-11-25T13:15:17;22.85;;;9.25;;
3587;SDS011;1808;53.596;9.972;2022-11-25T13:17:46;19.35;;;8.32;;
3587;SDS011;1808;53.596;9.972;2022-11-25T13:23:01;20.50;;;8.10;;
3587;SDS011;1808;53.596;9.972;2022-11-25T13:25:34;15.48;;;8.15;;
3587;SDS011;1808;53.596;9.972;2022-11-25T13:28:02;15.93;;;8.07;;
3587;SDS011;1808;53.596;9.972;2022-11-25T13:30:34;15.20;;;7.70;;
3587;SDS011;1808;53.596;9.972;2022-11-25T13:33:49;19.08;;;8.13;;
3587;SDS011;1808;53.596;9.972;2022-11-25T13:36:19;20.85;;;8.60;;
3587;SDS011;1808;53.596;9.972;2022-11-25T13:38:56;19.27;;;7.97;;
3587;SDS011;1808;53.596;9.972;2022-11-25T13:41:32;17.40;;;8.05;;
3587;SDS011;1808;53.596;9.972;2022-11-25T13:44:05;26.75;;;8.65;;
3587;SDS011;1808;53.596;9.972;2022-11-25T13:46:40;18.52;;;7.93;;
3587;SDS011;1808;53.596;9.972;2022-11-25T13:49:19;21.17;;;8.45;;
3587;SDS011;1808;53.596;9.972;2022-11-25T13:51:48;17.48;;;8.32;;
3587;SDS011;1808;53.596;9.972;2022-11-25T13:54:15;17.83;;;8.40;;
3587;SDS011;1808;53.596;9.972;2022-11-25T13:56:57;20.30;;;9.27;;
3587;SDS011;1808;53.596;9.972;2022-11-25T13:59:35;17.38;;;9.18;;
3587;SDS011;1808;53.596;9.972;2022-11-25T14:08:29;19.80;;;9.38;;
3587;SDS011;1808;53.596;9.972;2022-11-25T14:11:14;27.00;;;9.93;;
3587;SDS011;1808;53.596;9.972;2022-11-25T14:14:17;20.10;;;9.15;;
3587;SDS011;1808;53.596;9.972;2022-11-25T14:16:53;19.00;;;9.35;;
3587;SDS011;1808;53.596;9.972;2022-11-25T14:19:32;19.13;;;9.10;;
3587;SDS011;1808;53.596;9.972;2022-11-25T14:22:11;19.13;;;8.88;;
3587;SDS011;1808;53.596;9.972;2022-11-25T14:24:47;22.65;;;9.57;;
3587;SDS011;1808;53.596;9.972;2022-11-25T14:27:16;18.35;;;9.20;;
3587;SDS011;1808;53.596;9.972;2022-11-25T14:29:47;26.30;;;10.35;;
3587;SDS011;1808;53.596;9.972;2022-11-25T14:32:18;14.32;;;9.18;;
3587;SDS011;1808;53.596;9.972;2022-11-25T14:34:46;19.17;;;9.48;;
3587;SDS011;1808;53.596;9.972;2022-11-25T14:37:15;23.70;;;9.88;;
3587;SDS011;1808;53.596;9.972;2022-11-25T14:39:46;17.67;;;8.90;;
3587;SDS011;1808;53.596;9.972;2022-11-25T14:42:16;16.80;;;8.35;;
3587;SDS011;1808;53.596;9.972;2022-11-25T14:44:45;20.85;;;9.60;;
3587;SDS011;1808;53.596;9.972;2022-11-25T14:47:14;13.95;;;8.73;;
3587;SDS011;1808;53.596;9.972;2022-11-25T14:49:41;23.05;;;9.82;;
3587;SDS011;1808;53.596;9.972;2022-11-25T14:52:08;22.75;;;10.35;;
3587;SDS011;1808;53.596;9.972;2022-11-25T14:54:38;19.50;;;9.68;;
3587;SDS011;1808;53.596;9.972;2022-11-25T14:57:06;25.40;;;9.95;;
3587;SDS011;1808;53.596;9.972;2022-11-25T14:59:32;20.30;;;8.75;;
3587;SDS011;1808;53.596;9.972;2022-11-25T15:02:00;21.42;;;9.43;;
3587;SDS011;1808;53.596;9.972;2022-11-25T15:04:29;15.68;;;8.73;;
3587;SDS011;1808;53.596;9.972;2022-11-25T15:06:57;17.88;;;9.25;;
3587;SDS011;1808;53.596;9.972;2022-11-25T15:09:25;18.00;;;10.80;;
3587;SDS011;1808;53.596;9.972;2022-11-25T15:11:54;22.92;;;10.52;;
3587;SDS011;1808;53.596;9.972;2022-11-25T15:14:23;22.55;;;9.95;;
3587;SDS011;1808;53.596;9.972;2022-11-25T15:16:51;18.05;;;9.10;;
3587;SDS011;1808;53.596;9.972;2022-11-25T15:19:20;22.20;;;10.05;;
3587;SDS011;1808;53.596;9.972;2022-11-25T15:21:51;24.38;;;10.23;;
3587;SDS011;1808;53.596;9.972;2022-11-25T15:24:22;24.33;;;9.85;;
3587;SDS011;1808;53.596;9.972;2022-11-25T15:26:50;24.40;;;11.15;;
3587;SDS011;1808;53.596;9.972;2022-11-25T15:29:18;24.05;;;10.93;;